createdAt,value
2023-01-29T00:01:51.082Z,53.13
2023-01-29T00:04:17.096Z,50.72
2023-01-29T00:06:43.541Z,51.58
2023-01-29T00:09:10.464Z,54.85
2023-01-29T00:11:36.300Z,54.33
2023-01-29T00:14:02.206Z,53.25
2023-01-29T00:16:28.062Z,51.20
2023-01-29T00:18:53.933Z,51.88
2023-01-29T00:21:24.124Z,52.67
2023-01-29T00:23:50.611Z,51.42
2023-01-29T00:26:16.893Z,51.70
2023-01-29T00:28:43.126Z,45.72
2023-01-29T00:31:18.306Z,50.10
2023-01-29T00:33:44.273Z,48.03
2023-01-29T00:36:12.568Z,47.72
2023-01-29T00:38:38.539Z,48.67
2023-01-29T00:41:27.988Z,47.78
2023-01-29T00:44:12.448Z,48.60
2023-01-29T00:46:38.470Z,48.75
2023-01-29T00:49:04.894Z,53.55
2023-01-29T00:51:30.891Z,49.13
2023-01-29T00:53:57.648Z,52.58
2023-01-29T00:56:24.921Z,51.20
2023-01-29T00:58:51.646Z,51.42
2023-01-29T01:01:38.172Z,49.80
2023-01-29T01:04:05.079Z,53.33
2023-01-29T01:06:30.952Z,51.33
2023-01-29T01:09:15.649Z,51.33
2023-01-29T01:11:41.463Z,53.90
2023-01-29T01:14:08.032Z,52.38
2023-01-29T01:16:33.940Z,57.63
2023-01-29T01:18:59.898Z,53.10
2023-01-29T01:21:25.836Z,52.92
2023-01-29T01:23:52.921Z,49.40
2023-01-29T01:26:18.874Z,52.42
2023-01-29T01:28:44.762Z,48.78
2023-01-29T01:31:12.660Z,44.75
2023-01-29T01:33:39.379Z,45.05
2023-01-29T01:36:09.410Z,41.80
2023-01-29T01:38:43.946Z,40.75
2023-01-29T01:41:16.674Z,41.28
2023-01-29T01:44:28.646Z,43.40
2023-01-29T01:46:54.915Z,44.88
2023-01-29T01:49:21.074Z,41.95
2023-01-29T01:51:51.529Z,48.42
2023-01-29T01:54:26.115Z,47.17
2023-01-29T01:57:08.466Z,46.63
2023-01-29T01:59:39.510Z,49.03
2023-01-29T02:02:25.668Z,52.50
2023-01-29T02:05:11.448Z,53.03
2023-01-29T02:08:01.565Z,51.55
2023-01-29T02:10:36.037Z,47.88
2023-01-29T02:13:01.971Z,50.15
2023-01-29T02:15:27.863Z,54.08
2023-01-29T02:17:54.010Z,49.45
2023-01-29T02:20:24.783Z,50.97
2023-01-29T02:23:09.008Z,51.53
2023-01-29T02:25:49.928Z,52.95
2023-01-29T02:28:23.031Z,52.80
2023-01-29T02:31:08.800Z,47.67
2023-01-29T02:33:59.665Z,48.50
2023-01-29T02:36:42.383Z,46.33
2023-01-29T02:39:19.581Z,45.72
2023-01-29T02:42:16.003Z,44.03
2023-01-29T02:47:19.776Z,50.38
2023-01-29T02:49:55.642Z,51.47
2023-01-29T02:52:33.267Z,53.53
2023-01-29T02:55:21.508Z,50.53
2023-01-29T02:57:51.008Z,53.08
2023-01-29T03:00:25.055Z,52.65
2023-01-29T03:02:58.666Z,55.80
2023-01-29T03:05:45.077Z,51.50
2023-01-29T03:08:16.163Z,55.53
2023-01-29T03:10:56.322Z,51.67
2023-01-29T03:13:28.353Z,50.40
2023-01-29T03:16:08.212Z,49.05
2023-01-29T03:18:45.515Z,49.28
2023-01-29T03:21:36.216Z,42.78
2023-01-29T03:24:23.087Z,43.63
2023-01-29T03:27:08.045Z,40.85
2023-01-29T03:29:54.595Z,43.42
2023-01-29T03:32:24.099Z,47.78
2023-01-29T03:34:56.741Z,45.47
2023-01-29T03:37:45.576Z,46.90
2023-01-29T03:40:12.691Z,48.08
2023-01-29T03:43:05.096Z,46.20
2023-01-29T03:45:57.451Z,46.65
2023-01-29T03:48:42.772Z,50.00
2023-01-29T03:51:32.724Z,46.45
2023-01-29T03:54:13.152Z,51.55
2023-01-29T03:56:54.672Z,44.85
2023-01-29T03:59:49.080Z,48.25
2023-01-29T04:02:27.114Z,48.38
2023-01-29T04:04:58.652Z,51.10
2023-01-29T04:07:25.727Z,52.95
2023-01-29T04:10:07.524Z,49.50
2023-01-29T04:12:41.889Z,55.38
2023-01-29T04:15:14.356Z,56.95
2023-01-29T04:17:44.902Z,58.50
2023-01-29T04:20:11.283Z,60.22
2023-01-29T04:22:39.151Z,63.00
2023-01-29T04:25:15.191Z,55.60
2023-01-29T04:28:10.870Z,60.28
2023-01-29T04:30:48.539Z,62.90
2023-01-29T04:33:34.471Z,61.38
2023-01-29T04:39:12.055Z,60.17
2023-01-29T04:42:03.654Z,65.55
2023-01-29T04:44:49.117Z,67.53
2023-01-29T04:47:28.529Z,70.18
2023-01-29T04:50:12.699Z,69.50
2023-01-29T04:52:56.872Z,64.10
2023-01-29T04:55:28.686Z,65.00
2023-01-29T04:58:17.780Z,70.43
2023-01-29T05:00:48.505Z,72.38
2023-01-29T05:03:15.653Z,66.93
2023-01-29T05:05:45.908Z,72.40
2023-01-29T05:08:16.231Z,68.30
2023-01-29T05:10:42.433Z,73.55
2023-01-29T05:13:11.398Z,69.00
2023-01-29T05:16:16.343Z,74.15
2023-01-29T05:18:42.876Z,72.22
2023-01-29T05:21:09.405Z,70.85
2023-01-29T05:23:35.340Z,71.60
2023-01-29T05:26:01.669Z,67.70
2023-01-29T05:28:27.528Z,63.50
2023-01-29T05:30:55.956Z,63.15
2023-01-29T05:33:27.131Z,65.30
2023-01-29T05:35:54.592Z,64.90
2023-01-29T05:38:21.515Z,67.38
2023-01-29T05:40:47.975Z,59.90
2023-01-29T05:43:24.213Z,64.95
2023-01-29T05:45:58.511Z,62.45
2023-01-29T05:48:28.086Z,57.55
2023-01-29T05:50:58.811Z,59.63
2023-01-29T05:53:24.691Z,62.22
2023-01-29T05:55:50.508Z,58.75
2023-01-29T05:58:19.161Z,58.00
2023-01-29T06:00:45.050Z,59.22
2023-01-29T06:03:11.000Z,59.50
2023-01-29T06:05:38.117Z,59.63
2023-01-29T06:08:04.537Z,61.03
2023-01-29T06:10:30.410Z,57.92
2023-01-29T06:12:56.254Z,57.47
2023-01-29T06:15:22.114Z,59.10
2023-01-29T06:17:47.970Z,56.83
2023-01-29T06:20:14.109Z,59.75
2023-01-29T06:22:40.152Z,62.20
2023-01-29T06:25:06.631Z,61.00
2023-01-29T06:27:32.510Z,63.58
2023-01-29T06:29:58.363Z,57.10
2023-01-29T06:32:24.408Z,62.50
2023-01-29T06:34:50.254Z,67.13
2023-01-29T06:37:16.117Z,58.80
2023-01-29T06:39:42.045Z,59.75
2023-01-29T06:42:07.910Z,61.30
2023-01-29T06:44:33.752Z,64.72
2023-01-29T06:46:59.642Z,64.95
2023-01-29T06:49:31.459Z,69.13
2023-01-29T06:51:57.396Z,61.88
2023-01-29T06:54:23.358Z,69.72
2023-01-29T06:56:49.226Z,65.15
2023-01-29T06:59:15.299Z,62.90
2023-01-29T07:01:43.420Z,65.40
2023-01-29T07:04:10.909Z,70.10
2023-01-29T07:06:37.014Z,65.45
2023-01-29T07:09:03.883Z,71.45
2023-01-29T07:11:30.255Z,67.60
2023-01-29T07:13:56.237Z,63.08
2023-01-29T07:16:22.708Z,72.68
2023-01-29T07:18:48.590Z,68.10
2023-01-29T07:21:14.731Z,62.22
2023-01-29T07:23:40.568Z,63.30
2023-01-29T07:26:07.139Z,63.65
2023-01-29T07:28:40.190Z,60.33
2023-01-29T07:31:07.879Z,65.07
2023-01-29T07:33:34.122Z,60.72
2023-01-29T07:36:00.080Z,61.80
2023-01-29T07:38:25.951Z,63.30
2023-01-29T07:40:52.414Z,60.40
2023-01-29T07:43:18.295Z,59.30
2023-01-29T07:45:44.263Z,61.78
2023-01-29T07:48:12.209Z,60.58
2023-01-29T07:50:39.910Z,59.22
2023-01-29T07:53:05.864Z,60.22
2023-01-29T07:55:33.294Z,60.95
2023-01-29T07:58:02.927Z,58.35
2023-01-29T08:00:31.122Z,62.08
2023-01-29T08:03:19.429Z,58.50
2023-01-29T08:05:46.058Z,54.40
2023-01-29T08:08:12.392Z,55.83
2023-01-29T08:10:39.954Z,57.50
2023-01-29T08:13:06.607Z,62.33
2023-01-29T08:15:32.843Z,56.30
2023-01-29T08:18:00.748Z,52.67
2023-01-29T08:20:26.798Z,57.78
2023-01-29T08:23:00.662Z,58.33
2023-01-29T08:25:26.987Z,59.85
2023-01-29T08:27:53.186Z,65.05
2023-01-29T08:30:19.124Z,57.83
2023-01-29T08:32:45.071Z,54.92
2023-01-29T08:35:10.923Z,63.20
2023-01-29T08:37:36.834Z,59.05
2023-01-29T08:40:03.309Z,62.25
2023-01-29T08:42:29.160Z,62.30
2023-01-29T08:44:55.127Z,63.78
2023-01-29T08:47:21.071Z,64.45
2023-01-29T08:49:47.010Z,67.95
2023-01-29T08:52:12.841Z,64.40
2023-01-29T08:54:38.755Z,59.47
2023-01-29T08:57:04.767Z,56.40
2023-01-29T08:59:30.816Z,58.47
2023-01-29T09:01:56.694Z,62.97
2023-01-29T09:04:22.772Z,60.38
2023-01-29T09:06:48.764Z,61.10
2023-01-29T09:09:14.775Z,59.25
2023-01-29T09:11:40.694Z,58.15
2023-01-29T09:14:06.733Z,60.30
2023-01-29T09:16:32.691Z,64.72
2023-01-29T09:18:58.567Z,55.75
2023-01-29T09:21:24.514Z,61.92
2023-01-29T09:23:50.395Z,59.53
2023-01-29T09:26:16.481Z,60.65
2023-01-29T09:28:42.781Z,59.15
2023-01-29T09:31:08.946Z,56.38
2023-01-29T09:33:35.302Z,58.00
2023-01-29T09:36:02.744Z,62.53
2023-01-29T09:38:28.807Z,63.00
2023-01-29T09:40:59.605Z,58.75
2023-01-29T09:43:47.521Z,62.78
2023-01-29T09:46:29.148Z,56.83
2023-01-29T09:49:03.486Z,58.78
2023-01-29T09:51:48.343Z,64.30
2023-01-29T09:54:24.037Z,56.78
2023-01-29T09:56:54.329Z,53.65
2023-01-29T09:59:23.338Z,50.38
2023-01-29T10:02:43.305Z,52.60
2023-01-29T10:05:26.057Z,51.00
2023-01-29T10:08:29.014Z,52.35
2023-01-29T10:11:13.711Z,52.03
2023-01-29T10:14:02.502Z,51.50
2023-01-29T10:16:28.479Z,46.97
2023-01-29T10:19:09.478Z,48.28
2023-01-29T10:21:59.887Z,48.25
2023-01-29T10:24:48.006Z,44.38
2023-01-29T10:27:16.013Z,49.67
2023-01-29T10:29:43.759Z,51.20
2023-01-29T10:32:16.683Z,52.65
2023-01-29T10:34:49.462Z,48.33
2023-01-29T10:37:42.313Z,53.47
2023-01-29T10:40:20.935Z,50.30
2023-01-29T10:42:51.024Z,52.63
2023-01-29T10:45:34.670Z,53.70
2023-01-29T10:48:16.191Z,50.47
2023-01-29T10:50:50.013Z,50.58
2023-01-29T10:53:42.964Z,50.35
2023-01-29T10:56:23.665Z,53.00
2023-01-29T10:58:54.404Z,49.00
2023-01-29T11:01:20.480Z,47.67
2023-01-29T11:03:56.687Z,49.03
2023-01-29T11:06:28.705Z,52.35
2023-01-29T11:09:09.042Z,49.17
2023-01-29T11:11:47.282Z,48.33
2023-01-29T11:14:23.957Z,44.67
2023-01-29T11:16:50.674Z,49.60
2023-01-29T11:19:16.974Z,51.67
2023-01-29T11:21:56.748Z,50.80
2023-01-29T11:24:22.669Z,52.70
2023-01-29T11:26:50.084Z,47.78
2023-01-29T11:29:28.195Z,53.78
2023-01-29T11:31:54.829Z,51.15
2023-01-29T11:34:24.379Z,49.42
2023-01-29T11:37:02.061Z,48.90
2023-01-29T11:39:30.195Z,53.03
2023-01-29T11:42:03.064Z,51.63
2023-01-29T11:44:42.090Z,53.58
2023-01-29T11:47:16.112Z,50.63
2023-01-29T11:49:49.711Z,55.22
2023-01-29T11:52:20.186Z,53.00
2023-01-29T11:54:46.095Z,52.70
2023-01-29T11:57:50.401Z,53.47
2023-01-29T12:00:25.637Z,54.65
2023-01-29T12:03:14.601Z,53.72
2023-01-29T12:05:52.521Z,59.03
2023-01-29T12:08:19.075Z,56.65
2023-01-29T12:10:45.074Z,58.88
2023-01-29T12:13:19.899Z,55.20
2023-01-29T12:15:47.463Z,55.38
2023-01-29T12:18:32.678Z,57.50
2023-01-29T12:21:13.845Z,57.97
2023-01-29T12:23:56.741Z,50.85
2023-01-29T12:26:35.404Z,51.78
2023-01-29T12:29:14.881Z,54.45
2023-01-29T12:32:13.132Z,52.17
2023-01-29T12:34:54.893Z,56.53
2023-01-29T12:37:30.248Z,56.42
2023-01-29T12:39:56.369Z,56.17
2023-01-29T12:42:23.749Z,56.75
2023-01-29T12:44:58.309Z,55.83
2023-01-29T12:47:33.725Z,56.47
2023-01-29T12:50:09.512Z,55.47
2023-01-29T12:52:46.677Z,58.70
2023-01-29T12:55:21.495Z,54.65
2023-01-29T12:57:57.319Z,53.85
2023-01-29T13:00:34.607Z,54.20
2023-01-29T13:03:16.537Z,53.25
2023-01-29T13:05:50.634Z,51.95
2023-01-29T13:08:35.613Z,50.78
2023-01-29T13:11:07.869Z,49.53
2023-01-29T13:13:53.879Z,48.45
2023-01-29T13:16:25.404Z,47.25
2023-01-29T13:19:02.994Z,42.67
2023-01-29T13:21:34.322Z,43.38
2023-01-29T13:24:06.468Z,44.28
2023-01-29T13:26:33.862Z,43.97
2023-01-29T13:29:00.886Z,46.88
2023-01-29T13:31:30.912Z,46.63
2023-01-29T13:34:46.363Z,47.45
2023-01-29T13:37:41.523Z,45.30
2023-01-29T13:40:18.861Z,43.45
2023-01-29T13:42:49.824Z,41.33
2023-01-29T13:45:25.162Z,43.80
2023-01-29T13:47:52.423Z,41.90
2023-01-29T13:50:32.621Z,39.33
2023-01-29T13:53:01.590Z,42.60
2023-01-29T13:55:39.798Z,35.40
2023-01-29T13:58:08.219Z,35.38
2023-01-29T14:00:34.106Z,36.33
2023-01-29T14:02:59.948Z,36.60
2023-01-29T14:05:28.916Z,38.22
2023-01-29T14:08:13.061Z,41.08
2023-01-29T14:10:40.858Z,33.75
2023-01-29T14:13:18.772Z,36.90
2023-01-29T14:16:07.421Z,37.03
2023-01-29T14:18:35.876Z,36.47
2023-01-29T14:21:19.905Z,37.17
2023-01-29T14:23:50.563Z,37.03
2023-01-29T14:26:44.972Z,36.90
2023-01-29T14:29:34.294Z,35.67
2023-01-29T14:32:07.041Z,36.80
2023-01-29T14:34:43.823Z,35.83
2023-01-29T14:37:16.060Z,42.17
2023-01-29T14:39:44.967Z,40.45
2023-01-29T14:42:37.552Z,39.42
2023-01-29T14:45:36.992Z,35.67
2023-01-29T14:48:08.968Z,36.53
2023-01-29T14:50:34.934Z,41.45
2023-01-29T14:53:10.410Z,39.25
2023-01-29T14:58:26.783Z,35.47
2023-01-29T15:00:58.803Z,35.20
2023-01-29T15:03:36.974Z,36.20
2023-01-29T15:06:05.648Z,42.35
2023-01-29T15:09:36.488Z,44.45
2023-01-29T15:12:08.054Z,32.70
2023-01-29T15:15:23.028Z,35.83
2023-01-29T15:17:58.763Z,38.25
2023-01-29T15:20:39.123Z,31.92
2023-01-29T15:23:24.248Z,34.75
2023-01-29T15:25:53.424Z,33.10
2023-01-29T15:28:20.662Z,39.30
2023-01-29T15:30:53.648Z,33.17
2023-01-29T15:33:20.367Z,38.35
2023-01-29T15:35:48.311Z,34.13
2023-01-29T15:38:20.050Z,37.20
2023-01-29T15:41:01.284Z,37.03
2023-01-29T15:43:42.215Z,32.83
2023-01-29T15:46:37.279Z,31.58
2023-01-29T15:49:17.136Z,35.05
2023-01-29T15:51:43.196Z,35.22
2023-01-29T15:54:16.138Z,38.53
2023-01-29T15:56:53.078Z,35.10
2023-01-29T15:59:23.206Z,33.40
2023-01-29T16:01:49.229Z,39.00
2023-01-29T16:04:28.314Z,42.22
2023-01-29T16:06:55.633Z,38.88
2023-01-29T16:09:24.675Z,35.08
2023-01-29T16:11:52.753Z,35.50
2023-01-29T16:14:22.562Z,35.33
2023-01-29T16:16:48.645Z,31.95
2023-01-29T16:19:24.008Z,30.27
2023-01-29T16:21:59.708Z,34.67
2023-01-29T16:24:26.937Z,33.85
2023-01-29T16:26:59.401Z,37.10
2023-01-29T16:29:32.268Z,32.45
2023-01-29T16:32:02.050Z,34.08
2023-01-29T16:34:39.964Z,37.17
2023-01-29T16:37:27.860Z,33.63
2023-01-29T16:39:54.132Z,34.50
2023-01-29T16:42:24.003Z,35.65
2023-01-29T16:44:58.925Z,33.58
2023-01-29T16:47:43.322Z,36.53
2023-01-29T16:50:35.939Z,30.90
2023-01-29T16:53:16.903Z,30.50
2023-01-29T16:55:46.324Z,31.02
2023-01-29T16:58:27.702Z,31.40
2023-01-29T17:00:58.963Z,34.15
2023-01-29T17:03:27.859Z,31.73
2023-01-29T17:05:54.410Z,30.25
2023-01-29T17:08:29.833Z,29.52
2023-01-29T17:10:56.076Z,31.95
2023-01-29T17:13:41.053Z,29.25
2023-01-29T17:16:26.957Z,29.58
2023-01-29T17:21:19.428Z,31.90
2023-01-29T17:23:45.445Z,33.08
2023-01-29T17:26:13.188Z,30.40
2023-01-29T17:28:40.576Z,35.67
2023-01-29T17:31:07.524Z,27.85
2023-01-29T17:33:36.695Z,28.77
2023-01-29T17:36:02.904Z,32.13
2023-01-29T17:38:28.980Z,28.35
2023-01-29T17:41:10.709Z,32.25
2023-01-29T17:43:36.640Z,28.08
2023-01-29T17:46:02.717Z,28.58
2023-01-29T17:48:30.181Z,31.50
2023-01-29T17:50:59.781Z,33.97
2023-01-29T17:53:30.524Z,30.90
2023-01-29T17:56:02.371Z,32.47
2023-01-29T17:58:28.308Z,27.88
2023-01-29T18:00:54.780Z,27.05
2023-01-29T18:03:22.337Z,30.45
2023-01-29T18:05:49.368Z,32.67
2023-01-29T18:08:27.824Z,33.63
2023-01-29T18:10:53.930Z,38.97
2023-01-29T18:13:19.823Z,35.80
2023-01-29T18:15:45.773Z,34.53
2023-01-29T18:18:19.114Z,30.88
2023-01-29T18:20:45.340Z,29.85
2023-01-29T18:23:13.439Z,28.85
2023-01-29T18:25:42.657Z,36.15
2023-01-29T18:28:16.728Z,37.15
2023-01-29T18:30:46.192Z,32.90
2023-01-29T18:33:13.493Z,29.75
2023-01-29T18:35:39.405Z,34.72
2023-01-29T18:38:05.621Z,32.63
2023-01-29T18:40:32.196Z,32.97
2023-01-29T18:43:02.400Z,40.38
2023-01-29T18:45:28.916Z,33.45
2023-01-29T18:47:56.033Z,34.88
2023-01-29T18:50:22.953Z,32.65
2023-01-29T18:52:49.791Z,35.40
2023-01-29T18:55:17.242Z,34.08
2023-01-29T18:58:26.199Z,37.60
2023-01-29T19:00:30.491Z,35.00
2023-01-29T19:02:56.526Z,37.58
2023-01-29T19:05:24.133Z,33.97
2023-01-29T19:07:50.274Z,34.78
2023-01-29T19:10:16.753Z,34.28
2023-01-29T19:12:43.175Z,38.40
2023-01-29T19:15:11.065Z,36.70
2023-01-29T19:17:37.719Z,33.88
2023-01-29T19:20:04.502Z,34.90
2023-01-29T19:22:33.481Z,37.40
2023-01-29T19:24:59.667Z,35.20
2023-01-29T19:27:29.611Z,33.97
2023-01-29T19:29:57.292Z,39.85
2023-01-29T19:32:23.381Z,37.90
2023-01-29T19:34:49.282Z,37.67
2023-01-29T19:37:15.247Z,42.22
2023-01-29T19:39:41.238Z,39.42
2023-01-29T19:42:07.309Z,39.10
2023-01-29T19:44:34.246Z,40.28
2023-01-29T19:47:00.690Z,47.25
2023-01-29T19:49:28.285Z,43.72
2023-01-29T19:51:55.290Z,40.50
2023-01-29T19:54:21.474Z,36.40
2023-01-29T19:56:47.434Z,38.50
2023-01-29T19:59:13.572Z,38.63
2023-01-29T20:01:39.668Z,40.90
2023-01-29T20:04:06.566Z,44.85
2023-01-29T20:06:32.647Z,45.33
2023-01-29T20:09:01.392Z,42.72
2023-01-29T20:11:27.369Z,39.70
2023-01-29T20:13:53.871Z,46.90
2023-01-29T20:16:20.650Z,38.88
2023-01-29T20:18:46.961Z,45.05
2023-01-29T20:21:16.176Z,42.08
2023-01-29T20:23:44.927Z,39.20
2023-01-29T20:26:16.188Z,39.60
2023-01-29T20:28:44.291Z,46.28
2023-01-29T20:31:13.701Z,43.13
2023-01-29T20:33:39.939Z,37.00
2023-01-29T20:36:09.331Z,38.25
2023-01-29T20:38:35.695Z,37.50
2023-01-29T20:41:13.314Z,37.38
2023-01-29T20:43:39.891Z,40.13
2023-01-29T20:46:06.461Z,35.97
2023-01-29T20:48:33.762Z,38.17
2023-01-29T20:51:09.032Z,38.65
2023-01-29T20:53:36.268Z,39.78
2023-01-29T20:56:04.420Z,40.58
2023-01-29T20:58:31.459Z,40.72
2023-01-29T21:00:57.459Z,39.42
2023-01-29T21:03:23.415Z,39.55
2023-01-29T21:05:50.874Z,37.20
2023-01-29T21:08:16.909Z,42.15
2023-01-29T21:10:44.810Z,43.90
2023-01-29T21:13:11.526Z,45.65
2023-01-29T21:15:37.668Z,42.03
2023-01-29T21:18:06.250Z,48.00
2023-01-29T21:20:32.338Z,43.20
2023-01-29T21:22:58.230Z,49.65
2023-01-29T21:25:24.219Z,44.30
2023-01-29T21:27:50.326Z,46.15
2023-01-29T21:30:17.696Z,44.97
2023-01-29T21:32:43.789Z,43.65
2023-01-29T21:35:09.925Z,46.60
2023-01-29T21:37:37.278Z,42.78
2023-01-29T21:40:05.425Z,42.25
2023-01-29T21:42:50.105Z,45.28
2023-01-29T21:45:16.392Z,39.70
2023-01-29T21:47:42.454Z,46.38
2023-01-29T21:50:08.957Z,44.88
2023-01-29T21:52:34.905Z,48.80
2023-01-29T21:55:00.891Z,39.78
2023-01-29T21:57:26.946Z,43.22
2023-01-29T21:59:53.554Z,52.10
2023-01-29T22:02:21.161Z,44.63
2023-01-29T22:04:47.471Z,50.22
2023-01-29T22:07:13.781Z,59.17
2023-01-29T22:09:39.702Z,47.35
2023-01-29T22:12:06.795Z,48.70
2023-01-29T22:14:33.736Z,51.50
2023-01-29T22:16:59.778Z,50.25
2023-01-29T22:19:25.754Z,50.85
2023-01-29T22:21:52.474Z,59.05
2023-01-29T22:24:19.477Z,53.35
2023-01-29T22:26:46.758Z,56.85
2023-01-29T22:29:16.262Z,54.90
2023-01-29T22:31:45.321Z,53.22
2023-01-29T22:34:12.572Z,52.05
2023-01-29T22:36:38.855Z,49.05
2023-01-29T22:39:07.089Z,52.20
2023-01-29T22:41:33.126Z,49.60
2023-01-29T22:43:59.763Z,53.58
2023-01-29T22:46:25.802Z,57.42
2023-01-29T22:48:51.880Z,49.65
2023-01-29T22:51:17.662Z,46.78
2023-01-29T22:53:49.442Z,52.28
2023-01-29T22:56:17.491Z,42.28
2023-01-29T22:58:43.548Z,53.33
2023-01-29T23:01:09.998Z,52.65
2023-01-29T23:03:36.210Z,47.22
2023-01-29T23:06:03.235Z,46.38
2023-01-29T23:08:31.028Z,46.08
2023-01-29T23:11:13.051Z,47.42
2023-01-29T23:13:48.275Z,50.42
2023-01-29T23:16:15.913Z,68.63
2023-01-29T23:18:42.483Z,52.63
2023-01-29T23:21:20.065Z,42.65
2023-01-29T23:23:46.439Z,67.93
2023-01-29T23:26:31.327Z,56.47
2023-01-29T23:28:57.686Z,111.15
2023-01-29T23:31:23.775Z,80.15
2023-01-29T23:33:49.805Z,53.38
2023-01-29T23:36:16.435Z,53.58
2023-01-29T23:38:42.525Z,56.72
2023-01-29T23:41:08.536Z,74.38
2023-01-29T23:43:34.835Z,81.30
2023-01-29T23:46:01.088Z,128.00
2023-01-29T23:48:27.428Z,293.65
2023-01-29T23:50:53.300Z,98.57
2023-01-29T23:53:19.196Z,50.13
2023-01-29T23:56:01.826Z,114.97
2023-01-29T23:58:29.227Z,344.50
